sensor_id;sensor_type;location;lat;lon;timestamp;P1;durP1;ratioP1;P2;durP2;ratioP2
18249;SDS011;27980;52.126;5.572;2023-08-21T00:00:21;3.03;;;2.45;;
18249;SDS011;27980;52.126;5.572;2023-08-21T00:02:49;3.92;;;2.30;;
18249;SDS011;27980;52.126;5.572;2023-08-21T00:05:16;3.78;;;2.30;;
18249;SDS011;27980;52.126;5.572;2023-08-21T00:07:45;4.68;;;2.67;;
18249;SDS011;27980;52.126;5.572;2023-08-21T00:10:11;7.03;;;2.65;;
18249;SDS011;27980;52.126;5.572;2023-08-21T00:12:39;7.78;;;2.35;;
18249;SDS011;27980;52.126;5.572;2023-08-21T00:15:06;4.25;;;2.83;;
18249;SDS011;27980;52.126;5.572;2023-08-21T00:17:34;4.03;;;2.20;;
18249;SDS011;27980;52.126;5.572;2023-08-21T00:20:02;3.17;;;2.20;;
18249;SDS011;27980;52.126;5.572;2023-08-21T00:22:36;3.80;;;2.50;;
18249;SDS011;27980;52.126;5.572;2023-08-21T00:25:03;2.83;;;2.15;;
18249;SDS011;27980;52.126;5.572;2023-08-21T00:27:30;3.67;;;2.78;;
18249;SDS011;27980;52.126;5.572;2023-08-21T00:29:57;4.25;;;2.47;;
18249;SDS011;27980;52.126;5.572;2023-08-21T00:32:24;3.45;;;2.30;;
18249;SDS011;27980;52.126;5.572;2023-08-21T00:34:51;3.47;;;2.53;;
18249;SDS011;27980;52.126;5.572;2023-08-21T00:37:19;2.42;;;1.95;;
18249;SDS011;27980;52.126;5.572;2023-08-21T00:39:45;2.55;;;2.25;;
18249;SDS011;27980;52.126;5.572;2023-08-21T00:42:12;6.07;;;2.80;;
18249;SDS011;27980;52.126;5.572;2023-08-21T00:44:39;7.90;;;3.03;;
18249;SDS011;27980;52.126;5.572;2023-08-21T00:47:05;3.67;;;2.60;;
18249;SDS011;27980;52.126;5.572;2023-08-21T00:49:34;5.38;;;2.60;;
18249;SDS011;27980;52.126;5.572;2023-08-21T00:52:01;5.10;;;2.40;;
18249;SDS011;27980;52.126;5.572;2023-08-21T00:54:29;3.60;;;2.30;;
18249;SDS011;27980;52.126;5.572;2023-08-21T00:56:56;3.60;;;2.70;;
18249;SDS011;27980;52.126;5.572;2023-08-21T00:59:24;5.43;;;2.60;;
18249;SDS011;27980;52.126;5.572;2023-08-21T01:01:52;4.60;;;2.70;;
18249;SDS011;27980;52.126;5.572;2023-08-21T01:04:18;4.03;;;2.60;;
18249;SDS011;27980;52.126;5.572;2023-08-21T01:06:48;3.85;;;2.45;;
18249;SDS011;27980;52.126;5.572;2023-08-21T01:09:17;5.20;;;2.97;;
18249;SDS011;27980;52.126;5.572;2023-08-21T01:11:50;5.05;;;2.83;;
18249;SDS011;27980;52.126;5.572;2023-08-21T01:14:21;4.90;;;3.30;;
18249;SDS011;27980;52.126;5.572;2023-08-21T01:16:52;3.30;;;2.60;;
18249;SDS011;27980;52.126;5.572;2023-08-21T01:19:24;3.97;;;2.78;;
18249;SDS011;27980;52.126;5.572;2023-08-21T01:21:52;4.13;;;2.50;;
18249;SDS011;27980;52.126;5.572;2023-08-21T01:24:20;4.47;;;2.30;;
18249;SDS011;27980;52.126;5.572;2023-08-21T01:26:46;7.45;;;2.80;;
18249;SDS011;27980;52.126;5.572;2023-08-21T01:29:14;3.35;;;2.20;;
18249;SDS011;27980;52.126;5.572;2023-08-21T01:31:43;5.35;;;2.50;;
18249;SDS011;27980;52.126;5.572;2023-08-21T01:34:11;4.60;;;3.00;;
18249;SDS011;27980;52.126;5.572;2023-08-21T01:36:40;5.35;;;2.40;;
18249;SDS011;27980;52.126;5.572;2023-08-21T01:39:06;4.30;;;2.95;;
18249;SDS011;27980;52.126;5.572;2023-08-21T01:41:34;3.17;;;2.45;;
18249;SDS011;27980;52.126;5.572;2023-08-21T01:44:03;4.32;;;2.80;;
18249;SDS011;27980;52.126;5.572;2023-08-21T01:46:30;6.60;;;2.88;;
18249;SDS011;27980;52.126;5.572;2023-08-21T01:48:56;4.60;;;2.72;;
18249;SDS011;27980;52.126;5.572;2023-08-21T01:51:23;6.93;;;2.80;;
18249;SDS011;27980;52.126;5.572;2023-08-21T01:53:49;5.22;;;3.08;;
18249;SDS011;27980;52.126;5.572;2023-08-21T01:56:16;5.07;;;2.67;;
18249;SDS011;27980;52.126;5.572;2023-08-21T01:58:45;5.93;;;2.67;;
18249;SDS011;27980;52.126;5.572;2023-08-21T02:01:11;3.28;;;2.83;;
18249;SDS011;27980;52.126;5.572;2023-08-21T02:03:37;3.58;;;2.85;;
18249;SDS011;27980;52.126;5.572;2023-08-21T02:06:05;2.88;;;2.42;;
18249;SDS011;27980;52.126;5.572;2023-08-21T02:08:31;3.40;;;2.40;;
18249;SDS011;27980;52.126;5.572;2023-08-21T02:10:59;5.53;;;2.60;;
18249;SDS011;27980;52.126;5.572;2023-08-21T02:13:25;2.90;;;2.30;;
18249;SDS011;27980;52.126;5.572;2023-08-21T02:15:53;4.53;;;2.90;;
18249;SDS011;27980;52.126;5.572;2023-08-21T02:18:20;6.63;;;2.97;;
18249;SDS011;27980;52.126;5.572;2023-08-21T02:20:47;4.30;;;2.63;;
18249;SDS011;27980;52.126;5.572;2023-08-21T02:23:13;4.78;;;2.53;;
18249;SDS011;27980;52.126;5.572;2023-08-21T02:25:40;4.53;;;2.60;;
18249;SDS011;27980;52.126;5.572;2023-08-21T02:28:06;4.50;;;3.08;;
18249;SDS011;27980;52.126;5.572;2023-08-21T02:30:33;3.60;;;2.45;;
18249;SDS011;27980;52.126;5.572;2023-08-21T02:33:01;4.88;;;2.42;;
18249;SDS011;27980;52.126;5.572;2023-08-21T02:35:29;2.72;;;2.15;;
18249;SDS011;27980;52.126;5.572;2023-08-21T02:37:55;3.40;;;2.70;;
18249;SDS011;27980;52.126;5.572;2023-08-21T02:40:22;3.55;;;2.42;;
18249;SDS011;27980;52.126;5.572;2023-08-21T02:42:48;5.82;;;2.75;;
18249;SDS011;27980;52.126;5.572;2023-08-21T02:45:15;3.35;;;2.78;;
18249;SDS011;27980;52.126;5.572;2023-08-21T02:47:41;4.40;;;2.35;;
18249;SDS011;27980;52.126;5.572;2023-08-21T02:50:10;5.13;;;2.38;;
18249;SDS011;27980;52.126;5.572;2023-08-21T02:52:37;5.15;;;2.50;;
18249;SDS011;27980;52.126;5.572;2023-08-21T02:55:04;5.13;;;2.80;;
18249;SDS011;27980;52.126;5.572;2023-08-21T02:57:31;3.42;;;2.28;;
18249;SDS011;27980;52.126;5.572;2023-08-21T02:59:58;3.85;;;2.60;;
18249;SDS011;27980;52.126;5.572;2023-08-21T03:02:24;4.13;;;2.78;;
18249;SDS011;27980;52.126;5.572;2023-08-21T03:04:51;2.80;;;2.22;;
18249;SDS011;27980;52.126;5.572;2023-08-21T03:07:19;2.60;;;2.40;;
18249;SDS011;27980;52.126;5.572;2023-08-21T03:09:46;3.78;;;2.28;;
18249;SDS011;27980;52.126;5.572;2023-08-21T03:12:13;4.53;;;2.58;;
18249;SDS011;27980;52.126;5.572;2023-08-21T03:14:39;4.88;;;2.63;;
18249;SDS011;27980;52.126;5.572;2023-08-21T03:17:07;4.25;;;2.78;;
18249;SDS011;27980;52.126;5.572;2023-08-21T03:19:34;2.55;;;2.00;;
18249;SDS011;27980;52.126;5.572;2023-08-21T03:22:00;4.13;;;2.42;;
18249;SDS011;27980;52.126;5.572;2023-08-21T03:24:28;3.28;;;2.63;;
18249;SDS011;27980;52.126;5.572;2023-08-21T03:26:54;3.22;;;2.42;;
18249;SDS011;27980;52.126;5.572;2023-08-21T03:29:22;5.00;;;2.45;;
18249;SDS011;27980;52.126;5.572;2023-08-21T03:31:49;5.32;;;2.22;;
18249;SDS011;27980;52.126;5.572;2023-08-21T03:34:15;2.45;;;2.25;;
18249;SDS011;27980;52.126;5.572;2023-08-21T03:36:42;4.65;;;3.10;;
18249;SDS011;27980;52.126;5.572;2023-08-21T03:39:08;4.45;;;2.60;;
18249;SDS011;27980;52.126;5.572;2023-08-21T03:41:36;6.40;;;2.92;;
18249;SDS011;27980;52.126;5.572;2023-08-21T03:44:03;4.05;;;2.60;;
18249;SDS011;27980;52.126;5.572;2023-08-21T03:46:29;3.05;;;2.72;;
18249;SDS011;27980;52.126;5.572;2023-08-21T03:48:56;3.55;;;2.75;;
18249;SDS011;27980;52.126;5.572;2023-08-21T03:51:22;2.97;;;2.38;;
18249;SDS011;27980;52.126;5.572;2023-08-21T03:53:48;4.18;;;2.83;;
18249;SDS011;27980;52.126;5.572;2023-08-21T03:56:15;5.50;;;2.85;;
18249;SDS011;27980;52.126;5.572;2023-08-21T03:58:43;9.32;;;3.40;;
18249;SDS011;27980;52.126;5.572;2023-08-21T04:01:09;5.38;;;3.13;;
18249;SDS011;27980;52.126;5.572;2023-08-21T04:03:39;4.40;;;3.00;;
18249;SDS011;27980;52.126;5.572;2023-08-21T04:06:05;6.65;;;3.30;;
18249;SDS011;27980;52.126;5.572;2023-08-21T04:08:32;3.38;;;2.92;;
18249;SDS011;27980;52.126;5.572;2023-08-21T04:10:58;3.63;;;3.08;;
18249;SDS011;27980;52.126;5.572;2023-08-21T04:13:26;6.00;;;3.13;;
18249;SDS011;27980;52.126;5.572;2023-08-21T04:15:54;4.28;;;3.00;;
18249;SDS011;27980;52.126;5.572;2023-08-21T04:18:22;5.88;;;3.00;;
18249;SDS011;27980;52.126;5.572;2023-08-21T04:20:48;3.80;;;2.60;;
18249;SDS011;27980;52.126;5.572;2023-08-21T04:23:16;3.95;;;2.88;;
18249;SDS011;27980;52.126;5.572;2023-08-21T04:25:43;4.15;;;2.72;;
18249;SDS011;27980;52.126;5.572;2023-08-21T04:28:09;5.65;;;2.78;;
18249;SDS011;27980;52.126;5.572;2023-08-21T04:30:36;3.13;;;2.65;;
18249;SDS011;27980;52.126;5.572;2023-08-21T04:33:04;4.38;;;3.33;;
18249;SDS011;27980;52.126;5.572;2023-08-21T04:35:35;4.32;;;3.00;;
18249;SDS011;27980;52.126;5.572;2023-08-21T04:38:02;5.68;;;3.22;;
18249;SDS011;27980;52.126;5.572;2023-08-21T04:40:28;4.82;;;3.08;;
18249;SDS011;27980;52.126;5.572;2023-08-21T04:42:55;8.35;;;3.53;;
18249;SDS011;27980;52.126;5.572;2023-08-21T04:45:21;7.88;;;3.30;;
18249;SDS011;27980;52.126;5.572;2023-08-21T04:47:47;4.80;;;3.13;;
18249;SDS011;27980;52.126;5.572;2023-08-21T04:50:15;5.88;;;2.65;;
18249;SDS011;27980;52.126;5.572;2023-08-21T04:52:44;4.40;;;2.70;;
18249;SDS011;27980;52.126;5.572;2023-08-21T04:55:10;3.70;;;2.65;;
18249;SDS011;27980;52.126;5.572;2023-08-21T04:57:38;3.15;;;2.72;;
18249;SDS011;27980;52.126;5.572;2023-08-21T05:00:05;5.57;;;3.00;;
18249;SDS011;27980;52.126;5.572;2023-08-21T05:02:31;3.40;;;3.10;;
18249;SDS011;27980;52.126;5.572;2023-08-21T05:04:58;3.95;;;2.65;;
18249;SDS011;27980;52.126;5.572;2023-08-21T05:07:28;4.70;;;2.90;;
18249;SDS011;27980;52.126;5.572;2023-08-21T05:09:54;3.90;;;2.67;;
18249;SDS011;27980;52.126;5.572;2023-08-21T05:12:21;4.82;;;2.95;;
18249;SDS011;27980;52.126;5.572;2023-08-21T05:14:47;3.75;;;2.97;;
18249;SDS011;27980;52.126;5.572;2023-08-21T05:17:14;5.38;;;3.38;;
18249;SDS011;27980;52.126;5.572;2023-08-21T05:19:40;8.52;;;3.20;;
18249;SDS011;27980;52.126;5.572;2023-08-21T05:22:08;9.95;;;2.65;;
18249;SDS011;27980;52.126;5.572;2023-08-21T05:24:36;5.22;;;3.53;;
18249;SDS011;27980;52.126;5.572;2023-08-21T05:27:02;6.40;;;3.28;;
18249;SDS011;27980;52.126;5.572;2023-08-21T05:29:30;3.67;;;3.35;;
18249;SDS011;27980;52.126;5.572;2023-08-21T05:31:56;5.53;;;2.85;;
18249;SDS011;27980;52.126;5.572;2023-08-21T05:34:23;5.53;;;2.70;;
18249;SDS011;27980;52.126;5.572;2023-08-21T05:36:50;4.88;;;2.90;;
18249;SDS011;27980;52.126;5.572;2023-08-21T05:39:19;4.20;;;2.88;;
18249;SDS011;27980;52.126;5.572;2023-08-21T05:41:48;4.32;;;2.97;;
18249;SDS011;27980;52.126;5.572;2023-08-21T05:44:14;7.93;;;3.20;;
18249;SDS011;27980;52.126;5.572;2023-08-21T05:46:42;6.13;;;3.10;;
18249;SDS011;27980;52.126;5.572;2023-08-21T05:49:09;5.80;;;3.33;;
18249;SDS011;27980;52.126;5.572;2023-08-21T05:51:35;4.57;;;2.63;;
18249;SDS011;27980;52.126;5.572;2023-08-21T05:54:01;4.90;;;3.05;;
18249;SDS011;27980;52.126;5.572;2023-08-21T05:56:28;3.75;;;2.78;;
18249;SDS011;27980;52.126;5.572;2023-08-21T05:58:56;4.85;;;3.13;;
18249;SDS011;27980;52.126;5.572;2023-08-21T06:01:22;6.05;;;2.97;;
18249;SDS011;27980;52.126;5.572;2023-08-21T06:03:49;8.07;;;3.50;;
18249;SDS011;27980;52.126;5.572;2023-08-21T06:06:16;6.03;;;3.35;;
18249;SDS011;27980;52.126;5.572;2023-08-21T06:08:42;4.60;;;3.00;;
18249;SDS011;27980;52.126;5.572;2023-08-21T06:11:09;5.00;;;3.10;;
18249;SDS011;27980;52.126;5.572;2023-08-21T06:13:36;9.93;;;3.25;;
18249;SDS011;27980;52.126;5.572;2023-08-21T06:16:04;7.20;;;3.50;;
18249;SDS011;27980;52.126;5.572;2023-08-21T06:18:31;6.10;;;3.22;;
18249;SDS011;27980;52.126;5.572;2023-08-21T06:20:57;6.43;;;3.10;;
18249;SDS011;27980;52.126;5.572;2023-08-21T06:23:26;3.78;;;3.10;;
18249;SDS011;27980;52.126;5.572;2023-08-21T06:25:53;4.00;;;2.63;;
18249;SDS011;27980;52.126;5.572;2023-08-21T06:28:21;3.88;;;3.10;;
18249;SDS011;27980;52.126;5.572;2023-08-21T06:30:47;4.07;;;2.40;;
18249;SDS011;27980;52.126;5.572;2023-08-21T06:33:15;3.70;;;2.60;;
18249;SDS011;27980;52.126;5.572;2023-08-21T06:35:41;7.00;;;2.95;;
18249;SDS011;27980;52.126;5.572;2023-08-21T06:38:07;3.75;;;2.60;;
18249;SDS011;27980;52.126;5.572;2023-08-21T06:40:37;6.30;;;2.25;;
18249;SDS011;27980;52.126;5.572;2023-08-21T06:43:03;3.90;;;2.60;;
18249;SDS011;27980;52.126;5.572;2023-08-21T06:45:31;6.25;;;2.50;;
18249;SDS011;27980;52.126;5.572;2023-08-21T06:47:59;5.60;;;2.47;;
18249;SDS011;27980;52.126;5.572;2023-08-21T06:50:26;4.53;;;2.58;;
18249;SDS011;27980;52.126;5.572;2023-08-21T06:52:53;3.17;;;2.50;;
18249;SDS011;27980;52.126;5.572;2023-08-21T06:55:19;3.15;;;2.20;;
18249;SDS011;27980;52.126;5.572;2023-08-21T06:57:46;2.88;;;1.95;;
18249;SDS011;27980;52.126;5.572;2023-08-21T07:00:13;5.35;;;2.55;;
18249;SDS011;27980;52.126;5.572;2023-08-21T07:02:39;3.45;;;2.20;;
18249;SDS011;27980;52.126;5.572;2023-08-21T07:05:06;2.53;;;2.00;;
18249;SDS011;27980;52.126;5.572;2023-08-21T07:07:34;5.90;;;2.50;;
18249;SDS011;27980;52.126;5.572;2023-08-21T07:10:01;4.60;;;1.75;;
18249;SDS011;27980;52.126;5.572;2023-08-21T07:12:28;5.55;;;2.33;;
18249;SDS011;27980;52.126;5.572;2023-08-21T07:14:54;3.53;;;1.80;;
18249;SDS011;27980;52.126;5.572;2023-08-21T07:17:21;8.82;;;1.63;;
18249;SDS011;27980;52.126;5.572;2023-08-21T07:19:47;5.60;;;1.95;;
18249;SDS011;27980;52.126;5.572;2023-08-21T07:22:17;4.15;;;1.63;;
18249;SDS011;27980;52.126;5.572;2023-08-21T07:24:45;3.40;;;1.92;;
18249;SDS011;27980;52.126;5.572;2023-08-21T07:27:12;5.70;;;1.48;;
18249;SDS011;27980;52.126;5.572;2023-08-21T07:29:38;3.35;;;1.60;;
18249;SDS011;27980;52.126;5.572;2023-08-21T07:32:05;3.60;;;1.65;;
18249;SDS011;27980;52.126;5.572;2023-08-21T07:34:35;1.90;;;1.10;;
18249;SDS011;27980;52.126;5.572;2023-08-21T07:37:02;3.15;;;1.50;;
18249;SDS011;27980;52.126;5.572;2023-08-21T07:39:28;1.83;;;1.52;;
18249;SDS011;27980;52.126;5.572;2023-08-21T07:41:56;2.67;;;1.45;;
18249;SDS011;27980;52.126;5.572;2023-08-21T07:44:22;2.67;;;1.13;;
18249;SDS011;27980;52.126;5.572;2023-08-21T07:46:49;3.35;;;1.55;;
18249;SDS011;27980;52.126;5.572;2023-08-21T07:49:15;3.60;;;1.27;;
18249;SDS011;27980;52.126;5.572;2023-08-21T07:51:42;5.13;;;1.40;;
18249;SDS011;27980;52.126;5.572;2023-08-21T07:54:10;3.25;;;1.45;;
18249;SDS011;27980;52.126;5.572;2023-08-21T07:56:37;2.58;;;1.60;;
18249;SDS011;27980;52.126;5.572;2023-08-21T07:59:07;3.38;;;1.20;;
18249;SDS011;27980;52.126;5.572;2023-08-21T08:01:34;2.75;;;1.42;;
18249;SDS011;27980;52.126;5.572;2023-08-21T08:04:00;2.80;;;1.27;;
18249;SDS011;27980;52.126;5.572;2023-08-21T08:06:27;2.50;;;1.20;;
18249;SDS011;27980;52.126;5.572;2023-08-21T08:08:54;3.08;;;1.45;;
18249;SDS011;27980;52.126;5.572;2023-08-21T08:11:20;2.63;;;1.10;;
18249;SDS011;27980;52.126;5.572;2023-08-21T08:13:47;2.15;;;1.30;;
18249;SDS011;27980;52.126;5.572;2023-08-21T08:16:14;3.88;;;1.17;;
18249;SDS011;27980;52.126;5.572;2023-08-21T08:18:41;1.40;;;1.00;;
18249;SDS011;27980;52.126;5.572;2023-08-21T08:21:08;3.70;;;0.93;;
18249;SDS011;27980;52.126;5.572;2023-08-21T08:23:35;3.15;;;1.13;;
18249;SDS011;27980;52.126;5.572;2023-08-21T08:26:02;2.63;;;1.13;;
18249;SDS011;27980;52.126;5.572;2023-08-21T08:28:30;2.75;;;1.13;;
18249;SDS011;27980;52.126;5.572;2023-08-21T08:30:57;3.13;;;1.23;;
18249;SDS011;27980;52.126;5.572;2023-08-21T08:33:25;4.10;;;1.10;;
18249;SDS011;27980;52.126;5.572;2023-08-21T08:35:51;2.92;;;0.93;;
18249;SDS011;27980;52.126;5.572;2023-08-21T08:38:18;2.75;;;0.95;;
18249;SDS011;27980;52.126;5.572;2023-08-21T08:40:46;2.30;;;0.90;;
18249;SDS011;27980;52.126;5.572;2023-08-21T08:43:13;1.70;;;0.95;;
18249;SDS011;27980;52.126;5.572;2023-08-21T08:45:40;3.95;;;1.10;;
18249;SDS011;27980;52.126;5.572;2023-08-21T08:48:07;2.55;;;1.27;;
18249;SDS011;27980;52.126;5.572;2023-08-21T08:50:35;3.42;;;1.08;;
18249;SDS011;27980;52.126;5.572;2023-08-21T08:53:03;2.53;;;0.95;;
18249;SDS011;27980;52.126;5.572;2023-08-21T08:55:30;4.80;;;1.17;;
18249;SDS011;27980;52.126;5.572;2023-08-21T08:57:56;2.42;;;1.10;;
18249;SDS011;27980;52.126;5.572;2023-08-21T09:00:23;2.60;;;1.05;;
18249;SDS011;27980;52.126;5.572;2023-08-21T09:02:50;2.03;;;0.90;;
18249;SDS011;27980;52.126;5.572;2023-08-21T09:05:16;2.50;;;1.00;;
18249;SDS011;27980;52.126;5.572;2023-08-21T09:07:44;5.95;;;1.20;;
18249;SDS011;27980;52.126;5.572;2023-08-21T09:10:12;2.97;;;1.30;;
18249;SDS011;27980;52.126;5.572;2023-08-21T09:12:39;2.35;;;1.00;;
18249;SDS011;27980;52.126;5.572;2023-08-21T09:15:06;3.03;;;1.08;;
18249;SDS011;27980;52.126;5.572;2023-08-21T09:17:33;2.75;;;1.13;;
18249;SDS011;27980;52.126;5.572;2023-08-21T09:20:03;2.17;;;1.08;;
18249;SDS011;27980;52.126;5.572;2023-08-21T09:22:29;1.98;;;0.85;;
18249;SDS011;27980;52.126;5.572;2023-08-21T09:25:00;2.25;;;0.90;;
18249;SDS011;27980;52.126;5.572;2023-08-21T09:27:30;4.22;;;0.90;;
18249;SDS011;27980;52.126;5.572;2023-08-21T09:29:57;2.25;;;0.98;;
18249;SDS011;27980;52.126;5.572;2023-08-21T09:32:26;5.63;;;1.17;;
18249;SDS011;27980;52.126;5.572;2023-08-21T09:34:52;3.75;;;1.20;;
18249;SDS011;27980;52.126;5.572;2023-08-21T09:37:19;0.93;;;0.60;;
18249;SDS011;27980;52.126;5.572;2023-08-21T09:39:45;2.15;;;1.00;;
18249;SDS011;27980;52.126;5.572;2023-08-21T09:42:16;3.85;;;1.10;;
18249;SDS011;27980;52.126;5.572;2023-08-21T09:44:44;4.63;;;1.20;;
18249;SDS011;27980;52.126;5.572;2023-08-21T09:47:11;2.83;;;1.08;;
18249;SDS011;27980;52.126;5.572;2023-08-21T09:49:38;3.78;;;1.20;;
18249;SDS011;27980;52.126;5.572;2023-08-21T09:52:05;2.45;;;0.90;;
18249;SDS011;27980;52.126;5.572;2023-08-21T09:54:33;2.05;;;0.90;;
18249;SDS011;27980;52.126;5.572;2023-08-21T09:57:00;3.78;;;1.13;;
18249;SDS011;27980;52.126;5.572;2023-08-21T09:59:29;3.22;;;1.10;;
18249;SDS011;27980;52.126;5.572;2023-08-21T10:01:59;2.30;;;1.10;;
18249;SDS011;27980;52.126;5.572;2023-08-21T10:04:27;1.13;;;0.70;;
18249;SDS011;27980;52.126;5.572;2023-08-21T10:06:54;1.90;;;1.00;;
18249;SDS011;27980;52.126;5.572;2023-08-21T10:09:23;1.58;;;0.63;;
18249;SDS011;27980;52.126;5.572;2023-08-21T10:11:50;2.83;;;0.98;;
18249;SDS011;27980;52.126;5.572;2023-08-21T10:14:18;2.33;;;1.00;;
18249;SDS011;27980;52.126;5.572;2023-08-21T10:16:46;2.20;;;1.00;;
18249;SDS011;27980;52.126;5.572;2023-08-21T10:19:14;2.55;;;1.00;;
18249;SDS011;27980;52.126;5.572;2023-08-21T10:21:40;2.78;;;1.08;;
18249;SDS011;27980;52.126;5.572;2023-08-21T10:24:07;3.58;;;0.75;;
18249;SDS011;27980;52.126;5.572;2023-08-21T10:26:37;1.00;;;0.50;;
18249;SDS011;27980;52.126;5.572;2023-08-21T10:29:04;2.80;;;1.02;;
18249;SDS011;27980;52.126;5.572;2023-08-21T10:31:32;2.65;;;0.75;;
18249;SDS011;27980;52.126;5.572;2023-08-21T10:34:02;1.63;;;0.60;;
18249;SDS011;27980;52.126;5.572;2023-08-21T10:36:37;2.20;;;0.68;;
18249;SDS011;27980;52.126;5.572;2023-08-21T10:39:03;2.50;;;0.80;;
18249;SDS011;27980;52.126;5.572;2023-08-21T10:41:30;0.95;;;0.50;;
18249;SDS011;27980;52.126;5.572;2023-08-21T10:43:58;0.75;;;0.60;;
18249;SDS011;27980;52.126;5.572;2023-08-21T10:46:25;0.85;;;0.68;;
18249;SDS011;27980;52.126;5.572;2023-08-21T10:48:52;3.10;;;0.80;;
18249;SDS011;27980;52.126;5.572;2023-08-21T10:51:20;1.63;;;0.60;;
18249;SDS011;27980;52.126;5.572;2023-08-21T10:53:46;1.38;;;0.70;;
18249;SDS011;27980;52.126;5.572;2023-08-21T10:56:13;1.63;;;0.60;;
18249;SDS011;27980;52.126;5.572;2023-08-21T10:58:41;1.27;;;0.63;;
18249;SDS011;27980;52.126;5.572;2023-08-21T11:01:07;2.40;;;0.70;;
18249;SDS011;27980;52.126;5.572;2023-08-21T11:03:37;2.67;;;0.85;;
18249;SDS011;27980;52.126;5.572;2023-08-21T11:06:05;1.25;;;0.75;;
18249;SDS011;27980;52.126;5.572;2023-08-21T11:08:34;14.75;;;1.48;;
18249;SDS011;27980;52.126;5.572;2023-08-21T11:11:01;1.75;;;0.70;;
18249;SDS011;27980;52.126;5.572;2023-08-21T11:13:28;3.42;;;0.65;;
18249;SDS011;27980;52.126;5.572;2023-08-21T11:15:58;1.80;;;0.85;;
18249;SDS011;27980;52.126;5.572;2023-08-21T11:18:29;3.72;;;0.73;;
18249;SDS011;27980;52.126;5.572;2023-08-21T11:21:02;1.33;;;0.70;;
18249;SDS011;27980;52.126;5.572;2023-08-21T11:23:31;0.75;;;0.73;;
18249;SDS011;27980;52.126;5.572;2023-08-21T11:25:59;3.47;;;1.15;;
18249;SDS011;27980;52.126;5.572;2023-08-21T11:28:26;1.25;;;0.60;;
18249;SDS011;27980;52.126;5.572;2023-08-21T11:30:53;1.35;;;0.47;;
18249;SDS011;27980;52.126;5.572;2023-08-21T11:33:21;1.88;;;0.50;;
18249;SDS011;27980;52.126;5.572;2023-08-21T11:35:48;2.03;;;0.80;;
18249;SDS011;27980;52.126;5.572;2023-08-21T11:38:17;0.80;;;0.52;;
18249;SDS011;27980;52.126;5.572;2023-08-21T11:40:50;2.20;;;0.60;;
18249;SDS011;27980;52.126;5.572;2023-08-21T11:43:18;1.75;;;0.93;;
18249;SDS011;27980;52.126;5.572;2023-08-21T11:45:45;2.10;;;0.85;;
18249;SDS011;27980;52.126;5.572;2023-08-21T11:48:11;0.55;;;0.50;;
18249;SDS011;27980;52.126;5.572;2023-08-21T11:50:38;1.70;;;0.63;;
18249;SDS011;27980;52.126;5.572;2023-08-21T11:53:04;1.38;;;0.60;;
18249;SDS011;27980;52.126;5.572;2023-08-21T11:55:32;0.90;;;0.60;;
18249;SDS011;27980;52.126;5.572;2023-08-21T11:58:01;1.52;;;0.70;;
18249;SDS011;27980;52.126;5.572;2023-08-21T12:00:32;0.50;;;0.50;;
18249;SDS011;27980;52.126;5.572;2023-08-21T12:02:59;5.25;;;0.63;;
18249;SDS011;27980;52.126;5.572;2023-08-21T12:05:29;0.75;;;0.40;;
18249;SDS011;27980;52.126;5.572;2023-08-21T12:07:55;1.70;;;0.73;;
18249;SDS011;27980;52.126;5.572;2023-08-21T12:10:22;0.93;;;0.52;;
18249;SDS011;27980;52.126;5.572;2023-08-21T12:12:49;1.10;;;0.50;;
18249;SDS011;27980;52.126;5.572;2023-08-21T12:15:15;1.35;;;0.68;;
18249;SDS011;27980;52.126;5.572;2023-08-21T12:17:43;1.23;;;0.50;;
18249;SDS011;27980;52.126;5.572;2023-08-21T12:20:12;0.50;;;0.50;;
18249;SDS011;27980;52.126;5.572;2023-08-21T12:22:39;0.57;;;0.50;;
18249;SDS011;27980;52.126;5.572;2023-08-21T12:25:06;3.13;;;0.75;;
18249;SDS011;27980;52.126;5.572;2023-08-21T12:27:33;1.67;;;0.50;;
18249;SDS011;27980;52.126;5.572;2023-08-21T12:30:00;1.90;;;0.80;;
18249;SDS011;27980;52.126;5.572;2023-08-21T12:32:26;2.10;;;0.55;;
18249;SDS011;27980;52.126;5.572;2023-08-21T12:34:54;2.08;;;0.77;;
18249;SDS011;27980;52.126;5.572;2023-08-21T12:37:21;2.13;;;0.73;;
18249;SDS011;27980;52.126;5.572;2023-08-21T12:39:47;3.00;;;0.98;;
18249;SDS011;27980;52.126;5.572;2023-08-21T12:42:14;1.17;;;0.88;;
18249;SDS011;27980;52.126;5.572;2023-08-21T12:44:40;0.90;;;0.60;;
18249;SDS011;27980;52.126;5.572;2023-08-21T12:47:07;1.70;;;0.70;;
18249;SDS011;27980;52.126;5.572;2023-08-21T12:49:33;0.65;;;0.30;;
18249;SDS011;27980;52.126;5.572;2023-08-21T12:52:03;3.50;;;0.60;;
18249;SDS011;27980;52.126;5.572;2023-08-21T12:54:30;3.97;;;0.68;;
18249;SDS011;27980;52.126;5.572;2023-08-21T12:56:56;2.20;;;0.70;;
18249;SDS011;27980;52.126;5.572;2023-08-21T12:59:23;2.03;;;0.57;;
18249;SDS011;27980;52.126;5.572;2023-08-21T13:01:49;1.10;;;0.77;;
18249;SDS011;27980;52.126;5.572;2023-08-21T13:04:16;1.45;;;0.55;;
18249;SDS011;27980;52.126;5.572;2023-08-21T13:06:42;1.95;;;0.47;;
18249;SDS011;27980;52.126;5.572;2023-08-21T13:09:12;1.73;;;0.60;;
18249;SDS011;27980;52.126;5.572;2023-08-21T13:11:38;0.70;;;0.52;;
18249;SDS011;27980;52.126;5.572;2023-08-21T13:14:04;1.35;;;0.60;;
18249;SDS011;27980;52.126;5.572;2023-08-21T13:16:31;1.60;;;0.35;;
18249;SDS011;27980;52.126;5.572;2023-08-21T13:18:57;1.95;;;0.30;;
18249;SDS011;27980;52.126;5.572;2023-08-21T13:21:24;1.80;;;0.85;;
18249;SDS011;27980;52.126;5.572;2023-08-21T13:23:50;2.15;;;0.68;;
18249;SDS011;27980;52.126;5.572;2023-08-21T13:26:20;1.48;;;0.77;;
18249;SDS011;27980;52.126;5.572;2023-08-21T13:28:46;1.65;;;0.60;;
18249;SDS011;27980;52.126;5.572;2023-08-21T13:31:16;2.75;;;0.50;;
18249;SDS011;27980;52.126;5.572;2023-08-21T13:33:45;3.92;;;0.68;;
18249;SDS011;27980;52.126;5.572;2023-08-21T13:36:12;1.63;;;0.60;;
18249;SDS011;27980;52.126;5.572;2023-08-21T13:38:39;2.42;;;0.70;;
18249;SDS011;27980;52.126;5.572;2023-08-21T13:41:06;2.40;;;0.80;;
18249;SDS011;27980;52.126;5.572;2023-08-21T13:43:35;0.75;;;0.52;;
18249;SDS011;27980;52.126;5.572;2023-08-21T13:46:01;1.55;;;0.90;;
18249;SDS011;27980;52.126;5.572;2023-08-21T13:48:29;1.08;;;0.95;;
18249;SDS011;27980;52.126;5.572;2023-08-21T13:50:55;1.00;;;0.90;;
18249;SDS011;27980;52.126;5.572;2023-08-21T13:53:22;2.28;;;0.88;;
18249;SDS011;27980;52.126;5.572;2023-08-21T13:55:49;3.25;;;1.20;;
18249;SDS011;27980;52.126;5.572;2023-08-21T13:58:15;2.67;;;1.10;;
18249;SDS011;27980;52.126;5.572;2023-08-21T14:00:45;2.60;;;0.85;;
18249;SDS011;27980;52.126;5.572;2023-08-21T14:03:12;1.50;;;1.00;;
18249;SDS011;27980;52.126;5.572;2023-08-21T14:05:39;4.38;;;0.93;;
18249;SDS011;27980;52.126;5.572;2023-08-21T14:08:06;1.63;;;0.80;;
18249;SDS011;27980;52.126;5.572;2023-08-21T14:10:33;1.38;;;0.80;;
18249;SDS011;27980;52.126;5.572;2023-08-21T14:12:59;1.52;;;0.90;;
18249;SDS011;27980;52.126;5.572;2023-08-21T14:15:28;4.43;;;1.20;;
18249;SDS011;27980;52.126;5.572;2023-08-21T14:17:56;3.10;;;0.95;;
18249;SDS011;27980;52.126;5.572;2023-08-21T14:20:22;2.03;;;1.00;;
18249;SDS011;27980;52.126;5.572;2023-08-21T14:22:49;1.75;;;0.93;;
18249;SDS011;27980;52.126;5.572;2023-08-21T14:25:16;1.35;;;0.90;;
18249;SDS011;27980;52.126;5.572;2023-08-21T14:27:42;1.30;;;1.20;;
18249;SDS011;27980;52.126;5.572;2023-08-21T14:30:09;1.95;;;1.20;;
18249;SDS011;27980;52.126;5.572;2023-08-21T14:32:36;1.60;;;1.30;;
18249;SDS011;27980;52.126;5.572;2023-08-21T14:35:11;2.13;;;1.38;;
18249;SDS011;27980;52.126;5.572;2023-08-21T14:37:37;2.90;;;1.30;;
18249;SDS011;27980;52.126;5.572;2023-08-21T14:40:05;3.10;;;1.27;;
18249;SDS011;27980;52.126;5.572;2023-08-21T14:42:33;1.27;;;1.10;;
18249;SDS011;27980;52.126;5.572;2023-08-21T14:44:59;3.53;;;1.08;;
18249;SDS011;27980;52.126;5.572;2023-08-21T14:47:26;1.38;;;1.08;;